Westbrook, Connecticut
Current Conditions -  °F | °C
As of 9:35 PM on Tuesday 21 Oct 2014 (Local Time) from KSNC Reporting Station
Scattered Clouds Scattered Clouds  
Wind Chill: 55°   Ceiling: Unl
Heat Index: 55°   Visibility: 10mi
Dew Point: 54°   Wind: 3mph
Humidity: 94%   Direction: 20°NNE
Pressure: 29.94"   Gusts: NA
Location:  41.29°N, 72.45°W
Report Text: KSNC 220135Z AUTO 02003KT 10SM SCT017 SCT027 SCT075 13/12 A2994 RMK AO2
Loading
Personal Weather Stations






























Interactive Weather Map
Tropical Storm Tracking
New forecast layout! Learn more

10-Day Weather Forecast

Advertisements
Track Severe Weather on mobile